Time;durP1;ratioP1;P1;durP2;ratioP2;P2;SDS_P1;SDS_P2;PMS_P1;PMS_P2;Temp;Humidity;BMP_temperature;BMP_pressure;BME280_temperature;BME280_humidity;BME280_pressure;Samples;Min_cycle;Max_cycle;Signal;HPM_P1;HPM_P2
2022/12/01 00:00:58;;;;;;;;;;;;;;;6.93;100.00;100723.53;6250061;23;19923;-81
2022/12/01 00:03:24;;;;;;;;;;;;;;;7.08;100.00;100716.94;6223378;23;19942;-81
2022/12/01 00:05:59;;;;;;;;;;;;;;;7.05;100.00;100720.69;6249313;23;20018;-82
2022/12/01 00:08:26;;;;;;;;;;;;;;;7.09;100.00;100721.25;6249164;23;19974;-81
2022/12/01 00:10:54;;;;;;;;;;;;;;;7.10;100.00;100725.53;6222546;23;19911;-81
2022/12/01 00:13:21;;;;;;;;;;;;;;;6.81;100.00;100722.81;6248643;23;19911;-80
2022/12/01 00:15:46;;;;;;;;;;;;;;;6.62;100.00;100718.31;6248028;23;20278;-80
2022/12/01 00:18:14;;;;;;;;;;;;;;;6.54;100.00;100714.66;6248373;23;19938;-81
2022/12/01 00:20:40;;;;;;;;;;;;;;;6.59;100.00;100713.31;6249402;23;19990;-82
2022/12/01 00:23:05;;;;;;;;;;;;;;;6.52;100.00;100712.19;6248556;23;19926;-80
2022/12/01 00:25:31;;;;;;;;;;;;;;;6.56;100.00;100718.81;6248930;23;19912;-82
2022/12/01 00:27:56;;;;;;;;;;;;;;;6.71;100.00;100714.88;6249020;23;19994;-82
2022/12/01 00:30:22;;;;;;;;;;;;;;;6.89;100.00;100704.56;6249270;23;20319;-83
2022/12/01 00:32:47;;;;;;;;;;;;;;;6.90;100.00;100708.00;6249005;23;19919;-82
2022/12/01 00:35:13;;;;;;;;;;;;;;;6.80;100.00;100712.41;6223798;23;19914;-81
2022/12/01 00:37:39;;;;;;;;;;;;;;;6.94;100.00;100704.97;6249419;23;19911;-82
2022/12/01 00:40:05;;;;;;;;;;;;;;;6.97;100.00;100706.50;6248974;23;19911;-81
2022/12/01 00:42:30;;;;;;;;;;;;;;;6.82;100.00;100708.69;6248306;23;19990;-81
2022/12/01 00:44:56;;;;;;;;;;;;;;;6.84;100.00;100703.28;6248324;23;19912;-81
2022/12/01 00:47:22;;;;;;;;;;;;;;;6.67;100.00;100708.22;6247808;23;19911;-81
2022/12/01 00:49:47;;;;;;;;;;;;;;;6.75;100.00;100703.13;6246545;23;19964;-81
2022/12/01 00:52:13;;;;;;;;;;;;;;;6.71;100.00;100704.34;6246753;23;19923;-81
2022/12/01 00:54:39;;;;;;;;;;;;;;;6.35;100.00;100709.31;6246979;23;20311;-81
2022/12/01 00:57:05;;;;;;;;;;;;;;;6.37;100.00;100708.22;6247005;23;19958;-80
2022/12/01 00:59:30;;;;;;;;;;;;;;;6.36;100.00;100710.97;6255055;23;19912;-81
2022/12/01 01:01:55;;;;;;;;;;;;;;;6.15;100.00;100714.47;6256395;23;19912;-81
2022/12/01 01:04:21;;;;;;;;;;;;;;;6.14;100.00;100711.94;6255117;23;20001;-83
2022/12/01 01:06:46;;;;;;;;;;;;;;;6.28;100.00;100719.53;6255840;23;19919;-81
2022/12/01 01:09:12;;;;;;;;;;;;;;;6.25;100.00;100719.78;6255754;23;19941;-81
2022/12/01 01:11:38;;;;;;;;;;;;;;;6.18;100.00;100718.63;6257195;23;20003;-81
2022/12/01 01:14:04;;;;;;;;;;;;;;;6.22;100.00;100725.31;6253881;23;20234;-82
2022/12/01 01:16:29;;;;;;;;;;;;;;;6.41;100.00;100730.69;6254257;23;19959;-80
2022/12/01 01:18:56;;;;;;;;;;;;;;;6.41;100.00;100728.03;6228968;23;19951;-81
2022/12/01 01:21:22;;;;;;;;;;;;;;;6.44;100.00;100740.94;6255656;23;19911;-81
2022/12/01 01:23:48;;;;;;;;;;;;;;;6.42;100.00;100737.63;6254389;23;20400;-80
2022/12/01 01:26:15;;;;;;;;;;;;;;;6.23;100.00;100738.31;6253955;23;19907;-81
2022/12/01 01:28:44;;;;;;;;;;;;;;;5.96;100.00;100739.81;6254319;23;19938;-82
2022/12/01 01:31:10;;;;;;;;;;;;;;;5.73;100.00;100747.75;6255257;23;19911;-82
2022/12/01 01:33:36;;;;;;;;;;;;;;;5.55;100.00;100735.28;6228600;23;19911;-82
2022/12/01 01:36:02;;;;;;;;;;;;;;;5.65;100.00;100737.03;6256712;23;20307;-81
2022/12/01 01:38:28;;;;;;;;;;;;;;;5.72;100.00;100732.94;6257145;23;19912;-82
2022/12/01 01:40:56;;;;;;;;;;;;;;;5.96;100.00;100729.28;6253525;23;20311;-80
2022/12/01 01:43:42;;;;;;;;;;;;;;;5.93;100.00;100729.53;6245790;23;19922;-81
2022/12/01 01:46:13;;;;;;;;;;;;;;;6.28;100.00;100740.59;6249568;23;19911;-79
2022/12/01 01:48:40;;;;;;;;;;;;;;;6.17;100.00;100730.13;6265067;23;19962;-81
2022/12/01 01:51:06;;;;;;;;;;;;;;;6.32;100.00;100738.53;6259467;23;19990;-83
2022/12/01 01:53:32;;;;;;;;;;;;;;;6.12;100.00;100734.94;6246199;23;20250;-82
2022/12/01 01:55:58;;;;;;;;;;;;;;;6.37;100.00;100731.06;6245806;23;19927;-80
2022/12/01 01:58:23;;;;;;;;;;;;;;;6.39;100.00;100726.53;6245672;23;19911;-80
2022/12/01 02:00:49;;;;;;;;;;;;;;;6.37;100.00;100731.91;6245334;23;20071;-82
2022/12/01 02:03:17;;;;;;;;;;;;;;;6.34;100.00;100729.53;6218761;23;19915;-81
2022/12/01 02:05:44;;;;;;;;;;;;;;;5.93;100.00;100729.53;6245984;23;20258;-79
2022/12/01 02:08:11;;;;;;;;;;;;;;;6.00;100.00;100726.25;6246523;23;19911;-80
2022/12/01 02:10:54;;;;;;;;;;;;;;;5.97;100.00;100726.50;6245031;23;19918;-80
2022/12/01 02:13:26;;;;;;;;;;;;;;;5.85;100.00;100726.66;6245220;23;19921;-79
2022/12/01 02:15:59;;;;;;;;;;;;;;;5.83;100.00;100728.59;6246176;23;20248;-81
2022/12/01 02:18:24;;;;;;;;;;;;;;;5.75;100.00;100729.22;6219067;23;20345;-81
2022/12/01 02:21:09;;;;;;;;;;;;;;;5.64;100.00;100724.84;6244982;23;19994;-81
2022/12/01 02:23:34;;;;;;;;;;;;;;;5.54;100.00;100733.59;6245221;23;20246;-82
2022/12/01 02:26:18;;;;;;;;;;;;;;;5.59;100.00;100723.56;6245395;23;19918;-82
2022/12/01 02:29:02;;;;;;;;;;;;;;;5.54;100.00;100734.44;6245775;23;19919;-81
2022/12/01 02:31:36;;;;;;;;;;;;;;;5.71;100.00;100720.75;6244912;23;19911;-80
2022/12/01 02:34:07;;;;;;;;;;;;;;;5.72;100.00;100725.06;6245149;23;20262;-81
2022/12/01 02:36:38;;;;;;;;;;;;;;;5.71;100.00;100718.13;6245081;23;19927;-82
2022/12/01 02:39:16;;;;;;;;;;;;;;;5.83;100.00;100725.97;6244464;23;19911;-79
2022/12/01 02:41:45;;;;;;;;;;;;;;;5.81;100.00;100723.47;6244679;23;19917;-81
2022/12/01 02:44:16;;;;;;;;;;;;;;;5.66;100.00;100716.84;6245134;23;19911;-81
2022/12/01 02:46:49;;;;;;;;;;;;;;;5.66;100.00;100714.22;6244721;23;19966;-80
2022/12/01 02:49:17;;;;;;;;;;;;;;;5.59;100.00;100719.16;6244315;23;19918;-81
2022/12/01 02:51:43;;;;;;;;;;;;;;;5.43;100.00;100715.25;6244447;23;19915;-82
2022/12/01 02:54:09;;;;;;;;;;;;;;;5.26;100.00;100711.38;6244517;23;19912;-81
2022/12/01 02:56:35;;;;;;;;;;;;;;;5.23;100.00;100711.63;6244869;23;19966;-81
2022/12/01 02:59:00;;;;;;;;;;;;;;;5.33;100.00;100715.16;6245143;23;20336;-80
2022/12/01 03:01:44;;;;;;;;;;;;;;;5.12;100.00;100709.00;6244977;23;19918;-80
2022/12/01 03:04:21;;;;;;;;;;;;;;;5.09;100.00;100717.13;6244762;23;19990;-81
2022/12/01 03:06:54;;;;;;;;;;;;;;;4.92;100.00;100713.22;6245190;23;19912;-80
2022/12/01 03:09:45;;;;;;;;;;;;;;;5.20;100.00;100709.25;6245511;23;19912;-80
2022/12/01 03:12:13;;;;;;;;;;;;;;;5.11;100.00;100712.56;6238547;23;19998;-80
2022/12/01 03:14:44;;;;;;;;;;;;;;;5.16;100.00;100707.81;6245606;23;19917;-83
2022/12/01 03:17:18;;;;;;;;;;;;;;;5.18;100.00;100705.88;6245233;23;19918;-81
2022/12/01 03:19:47;;;;;;;;;;;;;;;5.05;100.00;100711.28;6245430;23;19911;-81
2022/12/01 03:22:15;;;;;;;;;;;;;;;4.90;100.00;100701.16;6245074;23;19936;-82
2022/12/01 03:24:42;;;;;;;;;;;;;;;4.90;100.00;100701.16;6245248;23;19938;-80
2022/12/01 03:27:10;;;;;;;;;;;;;;;4.83;100.00;100710.47;6245525;23;19965;-83
2022/12/01 03:29:39;;;;;;;;;;;;;;;4.74;100.00;100713.84;6245490;23;19911;-81
2022/12/01 03:32:09;;;;;;;;;;;;;;;4.50;100.00;100703.47;6245646;23;20307;-79
2022/12/01 03:35:03;;;;;;;;;;;;;;;4.49;100.00;100707.88;6245516;23;19969;-79
2022/12/01 03:37:32;;;;;;;;;;;;;;;4.71;100.00;100711.47;6240754;23;19908;-81
2022/12/01 03:39:58;;;;;;;;;;;;;;;4.58;100.00;100711.56;6245347;23;19912;-81
2022/12/01 03:42:35;;;;;;;;;;;;;;;4.48;100.00;100715.84;6245324;23;19912;-80
2022/12/01 03:45:05;;;;;;;;;;;;;;;4.40;100.00;100719.06;6245909;23;19934;-80
2022/12/01 03:47:34;;;;;;;;;;;;;;;4.57;100.00;100718.59;6245267;23;19911;-81
2022/12/01 03:50:00;;;;;;;;;;;;;;;4.55;100.00;100724.91;6245455;23;19915;-82
2022/12/01 03:52:43;;;;;;;;;;;;;;;4.33;100.00;100728.38;6247728;23;19911;-81
2022/12/01 03:55:09;;;;;;;;;;;;;;;4.34;100.00;100729.22;6247052;23;19986;-80
2022/12/01 03:57:38;;;;;;;;;;;;;;;4.40;100.00;100724.31;6240850;23;19907;-82
2022/12/01 04:00:05;;;;;;;;;;;;;;;4.66;100.00;100728.41;6247213;23;20283;-81
2022/12/01 04:02:37;;;;;;;;;;;;;;;4.43;100.00;100726.72;6247755;23;19907;-80
2022/12/01 04:05:04;;;;;;;;;;;;;;;4.43;100.00;100721.47;6247004;23;19916;-81
2022/12/01 04:07:30;;;;;;;;;;;;;;;4.44;100.00;100715.25;6246487;23;19957;-80
2022/12/01 04:09:55;;;;;;;;;;;;;;;4.69;100.00;100724.69;6246959;23;19915;-81
2022/12/01 04:12:29;;;;;;;;;;;;;;;4.59;100.00;100719.31;6247024;23;19998;-80
2022/12/01 04:14:59;;;;;;;;;;;;;;;4.50;100.00;100716.56;6246994;23;19950;-81
2022/12/01 04:17:24;;;;;;;;;;;;;;;4.51;100.00;100721.69;6246692;23;20288;-82
2022/12/01 04:19:50;;;;;;;;;;;;;;;4.52;100.00;100718.13;6246859;23;19982;-82
2022/12/01 04:22:15;;;;;;;;;;;;;;;4.37;100.00;100727.19;6246891;23;19935;-81
2022/12/01 04:24:41;;;;;;;;;;;;;;;4.19;100.00;100725.94;6246703;23;19957;-80
2022/12/01 04:27:06;;;;;;;;;;;;;;;4.18;100.00;100732.13;6220161;23;19908;-80
2022/12/01 04:29:31;;;;;;;;;;;;;;;4.04;100.00;100722.69;6247016;23;19982;-81
2022/12/01 04:31:57;;;;;;;;;;;;;;;4.04;100.00;100721.88;6247089;23;19912;-81
2022/12/01 04:34:22;;;;;;;;;;;;;;;4.05;100.00;100723.53;6246973;23;19974;-82
2022/12/01 04:36:47;;;;;;;;;;;;;;;3.99;100.00;100730.06;6259290;23;19907;-79
2022/12/01 04:39:13;;;;;;;;;;;;;;;3.76;100.00;100730.13;6267317;23;19911;-79
2022/12/01 04:41:38;;;;;;;;;;;;;;;3.86;100.00;100729.31;6253591;23;19911;-80
2022/12/01 04:44:04;;;;;;;;;;;;;;;3.89;100.00;100723.00;6247555;23;19969;-81
2022/12/01 04:46:29;;;;;;;;;;;;;;;3.88;100.00;100726.59;6246742;23;20236;-81
2022/12/01 04:48:54;;;;;;;;;;;;;;;3.86;100.00;100718.84;6246539;23;19908;-79
2022/12/01 04:51:21;;;;;;;;;;;;;;;3.98;100.00;100722.31;6246463;23;19915;-80
2022/12/01 04:53:46;;;;;;;;;;;;;;;4.03;100.00;100722.81;6246742;23;20243;-82
2022/12/01 04:56:12;;;;;;;;;;;;;;;3.95;100.00;100717.31;6246742;23;19912;-80
2022/12/01 04:58:37;;;;;;;;;;;;;;;3.72;100.00;100718.19;6246789;23;19961;-81
2022/12/01 05:01:04;;;;;;;;;;;;;;;3.87;100.00;100717.91;6246582;23;19922;-79
2022/12/01 05:03:29;;;;;;;;;;;;;;;3.74;100.00;100718.94;6246144;23;19938;-80
2022/12/01 05:06:01;;;;;;;;;;;;;;;3.85;100.00;100716.31;6246498;23;20303;-81
2022/12/01 05:08:26;;;;;;;;;;;;;;;3.90;100.00;100716.81;6219806;23;19948;-80
2022/12/01 05:10:54;;;;;;;;;;;;;;;3.83;100.00;100713.81;6246677;23;19966;-81
2022/12/01 05:13:19;;;;;;;;;;;;;;;3.65;100.00;100712.56;6246276;23;19999;-79
2022/12/01 05:15:45;;;;;;;;;;;;;;;3.43;100.00;100720.34;6246461;23;20239;-85
2022/12/01 05:18:10;;;;;;;;;;;;;;;3.40;100.00;100713.53;6246309;23;19916;-81
2022/12/01 05:20:58;;;;;;;;;;;;;;;3.32;100.00;100708.00;6246414;23;19911;-81
2022/12/01 05:23:24;;;;;;;;;;;;;;;3.44;100.00;100720.22;6247575;23;19911;-80
2022/12/01 05:25:50;;;;;;;;;;;;;;;3.55;100.00;100715.03;6246534;23;19919;-80
2022/12/01 05:28:15;;;;;;;;;;;;;;;3.70;100.00;100727.94;6246200;23;19915;-83
2022/12/01 05:30:40;;;;;;;;;;;;;;;3.61;100.00;100724.25;6246224;23;19937;-81
2022/12/01 05:33:06;;;;;;;;;;;;;;;3.53;100.00;100727.41;6246243;23;19915;-81
2022/12/01 05:35:32;;;;;;;;;;;;;;;3.51;100.00;100725.88;6219496;23;19942;-81
2022/12/01 05:37:58;;;;;;;;;;;;;;;3.45;100.00;100724.50;6246270;23;19953;-81
2022/12/01 05:40:23;;;;;;;;;;;;;;;3.36;100.00;100725.19;6250831;23;19907;-80
2022/12/01 05:42:48;;;;;;;;;;;;;;;3.50;100.00;100721.56;6251671;23;19907;-81
2022/12/01 05:45:14;;;;;;;;;;;;;;;3.48;100.00;100732.13;6246454;23;19911;-79
2022/12/01 05:47:39;;;;;;;;;;;;;;;3.53;100.00;100723.94;6245996;23;19921;-82
2022/12/01 05:50:05;;;;;;;;;;;;;;;3.51;100.00;100729.28;6246071;23;20323;-81
2022/12/01 05:52:32;;;;;;;;;;;;;;;3.73;100.00;100735.59;6245709;23;19969;-82
2022/12/01 05:54:57;;;;;;;;;;;;;;;3.72;100.00;100736.53;6245937;23;19965;-80
2022/12/01 05:57:23;;;;;;;;;;;;;;;3.62;100.00;100737.22;6217057;23;19933;-84
2022/12/01 05:59:48;;;;;;;;;;;;;;;3.62;100.00;100733.75;6246067;23;20016;-82
2022/12/01 06:02:13;;;;;;;;;;;;;;;3.59;100.00;100726.97;6246256;23;20388;-82
2022/12/01 06:04:39;;;;;;;;;;;;;;;3.56;100.00;100729.81;6245234;23;19915;-81
2022/12/01 06:07:04;;;;;;;;;;;;;;;3.60;100.00;100723.41;6244548;23;20235;-83
2022/12/01 06:09:30;;;;;;;;;;;;;;;3.57;100.00;100728.88;6244374;23;19911;-83
2022/12/01 06:11:55;;;;;;;;;;;;;;;3.57;100.00;100726.25;6245274;23;20315;-84
2022/12/01 06:14:21;;;;;;;;;;;;;;;3.64;100.00;100724.84;6245406;23;19915;-82
2022/12/01 06:16:46;;;;;;;;;;;;;;;3.60;100.00;100723.41;6245808;23;19911;-82
2022/12/01 06:19:11;;;;;;;;;;;;;;;3.55;100.00;100725.50;6245832;23;20208;-83
2022/12/01 06:21:37;;;;;;;;;;;;;;;3.95;100.00;100733.88;6245911;23;19911;-85
2022/12/01 06:24:02;;;;;;;;;;;;;;;3.97;100.00;100734.63;6246154;23;19942;-83
2022/12/01 06:26:27;;;;;;;;;;;;;;;4.23;100.00;100730.03;6247745;23;19912;-84
2022/12/01 06:28:53;;;;;;;;;;;;;;;4.27;100.00;100733.25;6245840;23;20374;-81
2022/12/01 06:31:18;;;;;;;;;;;;;;;4.22;100.00;100730.97;6246454;23;19908;-83
2022/12/01 06:33:43;;;;;;;;;;;;;;;4.16;100.00;100732.28;6246263;23;19915;-85
2022/12/01 06:36:09;;;;;;;;;;;;;;;4.19;100.00;100736.44;6220006;23;19919;-86
2022/12/01 06:38:38;;;;;;;;;;;;;;;4.37;100.00;100728.97;6220440;23;20278;-83
2022/12/01 06:41:04;;;;;;;;;;;;;;;4.19;100.00;100736.44;6246541;23;19942;-83
2022/12/01 06:43:29;;;;;;;;;;;;;;;4.05;100.00;100728.78;6245762;23;19945;-84
2022/12/01 06:45:55;;;;;;;;;;;;;;;3.99;100.00;100731.88;6219306;23;19911;-84
2022/12/01 06:48:21;;;;;;;;;;;;;;;3.95;100.00;100735.66;6246274;23;20382;-85
2022/12/01 06:50:48;;;;;;;;;;;;;;;3.90;100.00;100738.63;6247245;23;20251;-83
2022/12/01 06:53:14;;;;;;;;;;;;;;;3.84;100.00;100744.34;6203492;23;19935;-83
2022/12/01 06:55:39;;;;;;;;;;;;;;;3.74;100.00;100745.13;6251510;23;20185;-86
2022/12/01 06:58:05;;;;;;;;;;;;;;;3.73;100.00;100743.44;6246371;23;19930;-85
2022/12/01 07:00:31;;;;;;;;;;;;;;;3.70;100.00;100746.31;6243905;23;20258;-89
2022/12/01 07:02:56;;;;;;;;;;;;;;;3.67;100.00;100757.00;6244571;23;19919;-86
2022/12/01 07:05:21;;;;;;;;;;;;;;;3.59;100.00;100753.16;6244088;23;19915;-87
2022/12/01 07:07:47;;;;;;;;;;;;;;;3.61;100.00;100748.63;6244440;23;19912;-84
2022/12/01 07:10:12;;;;;;;;;;;;;;;3.57;100.00;100749.81;6245333;23;19907;-82
2022/12/01 07:12:38;;;;;;;;;;;;;;;3.65;100.00;100757.94;6246367;23;20374;-83
2022/12/01 07:15:05;;;;;;;;;;;;;;;3.66;100.00;100758.78;6247655;23;19933;-87
2022/12/01 07:17:30;;;;;;;;;;;;;;;3.62;100.00;100771.28;6221331;23;19915;-83
2022/12/01 07:19:56;;;;;;;;;;;;;;;3.64;100.00;100760.69;6246676;23;19946;-84
2022/12/01 07:22:21;;;;;;;;;;;;;;;3.67;100.00;100763.09;6247690;23;19907;-83
2022/12/01 07:24:47;;;;;;;;;;;;;;;3.58;100.00;100763.75;6255118;23;19911;-82
2022/12/01 07:27:13;;;;;;;;;;;;;;;3.59;100.00;100763.66;6268021;23;19989;-84
2022/12/01 07:29:39;;;;;;;;;;;;;;;3.78;100.00;100759.69;6265852;23;19966;-84
2022/12/01 07:32:04;;;;;;;;;;;;;;;3.80;100.00;100766.50;6253154;23;19912;-83
2022/12/01 07:34:30;;;;;;;;;;;;;;;3.87;100.00;100769.50;6253543;23;20361;-82
2022/12/01 07:36:55;;;;;;;;;;;;;;;3.81;100.00;100767.31;6252427;23;19904;-83
2022/12/01 07:39:29;;;;;;;;;;;;;;;3.92;100.00;100769.97;6253884;23;20283;-84
2022/12/01 07:41:55;;;;;;;;;;;;;;;3.93;100.00;100763.78;6229766;23;19923;-86
2022/12/01 07:44:23;;;;;;;;;;;;;;;4.04;100.00;100776.94;6252317;23;19958;-86
2022/12/01 07:46:49;;;;;;;;;;;;;;;4.00;100.00;100778.97;6249266;23;20041;-82
2022/12/01 07:49:14;;;;;;;;;;;;;;;4.18;100.00;100776.72;6249080;23;20258;-84
2022/12/01 07:51:43;;;;;;;;;;;;;;;4.07;100.00;100781.97;6221267;23;19911;-85
2022/12/01 07:54:09;;;;;;;;;;;;;;;4.15;100.00;100776.97;6250733;23;19911;-85
2022/12/01 07:56:35;;;;;;;;;;;;;;;4.06;100.00;100789.00;6221845;23;19927;-85
2022/12/01 07:59:00;;;;;;;;;;;;;;;4.10;100.00;100786.97;6247267;23;19911;-85
2022/12/01 08:01:25;;;;;;;;;;;;;;;4.09;100.00;100790.53;6250619;23;19912;-87
2022/12/01 08:03:52;;;;;;;;;;;;;;;4.16;100.00;100794.38;6248735;23;19950;-83
2022/12/01 08:06:18;;;;;;;;;;;;;;;4.17;100.00;100793.44;6249199;23;19912;-84
2022/12/01 08:08:44;;;;;;;;;;;;;;;4.31;100.00;100793.22;6248391;23;20370;-84
2022/12/01 08:11:30;;;;;;;;;;;;;;;4.35;100.00;100794.66;6248515;23;19919;-84
2022/12/01 08:13:56;;;;;;;;;;;;;;;4.46;100.00;100789.47;6249780;23;19957;-83
2022/12/01 08:16:22;;;;;;;;;;;;;;;4.54;100.00;100794.94;6251878;23;19944;-83
2022/12/01 08:18:48;;;;;;;;;;;;;;;4.52;100.00;100799.47;6250346;23;19915;-83
2022/12/01 08:21:15;;;;;;;;;;;;;;;4.54;100.00;100794.94;6249449;23;20293;-85
2022/12/01 08:23:41;;;;;;;;;;;;;;;4.52;100.00;100799.47;6248235;23;20241;-84
2022/12/01 08:26:07;;;;;;;;;;;;;;;4.59;100.00;100805.09;6248167;23;19947;-84
2022/12/01 08:28:36;;;;;;;;;;;;;;;4.76;100.00;100798.56;6250469;23;19983;-83
2022/12/01 08:31:15;;;;;;;;;;;;;;;4.98;100.00;100799.41;6248189;23;20000;-82
2022/12/01 08:33:40;;;;;;;;;;;;;;;5.08;100.00;100804.75;6248117;23;20389;-84
2022/12/01 08:36:06;;;;;;;;;;;;;;;5.06;100.00;100801.44;6220353;23;19915;-83
2022/12/01 08:38:31;;;;;;;;;;;;;;;4.97;100.00;100808.22;6246956;23;19912;-82
2022/12/01 08:41:03;;;;;;;;;;;;;;;4.95;100.00;100802.25;6246970;23;19934;-82
2022/12/01 08:43:31;;;;;;;;;;;;;;;5.00;100.00;100804.53;6248068;23;20211;-84
2022/12/01 08:45:58;;;;;;;;;;;;;;;5.11;100.00;100800.09;6247668;23;20267;-83
2022/12/01 08:48:23;;;;;;;;;;;;;;;5.34;100.00;100795.66;6247928;23;20361;-84
2022/12/01 08:50:48;;;;;;;;;;;;;;;5.35;100.00;100805.22;6247537;23;19912;-88
2022/12/01 08:53:14;;;;;;;;;;;;;;;5.44;100.00;100801.84;6247369;23;19942;-82
2022/12/01 08:55:39;;;;;;;;;;;;;;;5.54;100.00;100802.78;6221227;23;19908;-83
2022/12/01 08:58:05;;;;;;;;;;;;;;;5.47;100.00;100806.88;6247300;23;19907;-83
2022/12/01 09:00:30;;;;;;;;;;;;;;;5.42;100.00;100801.16;6248652;23;19996;-83
2022/12/01 09:02:55;;;;;;;;;;;;;;;5.51;100.00;100813.56;6248901;23;19911;-85
2022/12/01 09:05:21;;;;;;;;;;;;;;;5.46;100.00;100804.38;6248043;23;20219;-85
2022/12/01 09:08:29;;;;;;;;;;;;;;;5.34;100.00;100816.69;6249379;23;19911;-84
2022/12/01 09:10:31;;;;;;;;;;;;;;;5.28;100.00;100814.53;6249004;23;19930;-85
2022/12/01 09:12:57;;;;;;;;;;;;;;;5.52;100.00;100812.59;6249097;23;19911;-83
2022/12/01 09:15:22;;;;;;;;;;;;;;;5.58;100.00;100813.91;6224052;23;19916;-85
2022/12/01 09:17:48;;;;;;;;;;;;;;;5.57;100.00;100818.31;6233599;23;19908;-84
2022/12/01 09:20:13;;;;;;;;;;;;;;;5.57;100.00;100817.47;6256800;23;19939;-87
2022/12/01 09:22:38;;;;;;;;;;;;;;;5.73;100.00;100812.69;6253040;23;19911;-83
2022/12/01 09:25:13;;;;;;;;;;;;;;;5.88;100.00;100815.88;6269053;23;19943;-83
2022/12/01 09:27:42;;;;;;;;;;;;;;;6.02;100.00;100818.22;6271394;23;19891;-83
2022/12/01 09:30:10;;;;;;;;;;;;;;;5.67;100.00;100819.25;6220688;23;19983;-81
2022/12/01 09:32:35;;;;;;;;;;;;;;;5.65;100.00;100815.91;6270695;23;19915;-80
2022/12/01 09:40:12;;;;;;;;;;;;;;;5.91;100.00;100815.63;6302596;22;19923;-85
2022/12/01 09:42:46;;;;;;;;;;;;;;;5.94;100.00;100818.84;6274397;22;19906;-80
2022/12/01 09:45:31;;;;;;;;;;;;;;;5.92;100.00;100814.66;6292021;22;19917;-82
2022/12/01 09:48:02;;;;;;;;;;;;;;;6.11;100.00;100813.03;6288060;22;19943;-80
2022/12/01 09:53:14;;;;;;;;;;;;;;;5.89;100.00;100817.56;6300679;22;19978;-84
2022/12/01 09:55:48;;;;;;;;;;;;;;;5.98;100.00;100806.28;6301791;22;19911;-80
2022/12/01 09:58:20;;;;;;;;;;;;;;;6.01;100.00;100800.75;6266351;22;19899;-79
2022/12/01 10:00:47;;;;;;;;;;;;;;;5.91;100.00;100800.69;6303904;22;19899;-81
2022/12/01 10:03:19;;;;;;;;;;;;;;;5.87;100.00;100808.94;6276484;22;19927;-79
2022/12/01 10:05:54;;;;;;;;;;;;;;;5.89;100.00;100802.63;6302458;22;19895;-80
2022/12/01 10:11:20;;;;;;;;;;;;;;;6.19;100.00;100788.72;6281226;22;19926;-78
2022/12/01 10:13:45;;;;;;;;;;;;;;;6.17;100.00;100790.63;6251589;23;19911;-80
2022/12/01 10:22:03;;;;;;;;;;;;;;;5.96;100.00;100782.75;6300385;22;19903;-80
2022/12/01 10:24:44;;;;;;;;;;;;;;;6.09;100.00;100777.28;6299698;22;19922;-79
2022/12/01 10:27:53;;;;;;;;;;;;;;;6.31;100.00;100777.16;6285513;22;20694;-80
2022/12/01 10:30:27;;;;;;;;;;;;;;;6.29;100.00;100773.84;6300360;22;19917;-79
2022/12/01 10:33:14;;;;;;;;;;;;;;;6.32;100.00;100778.84;6293204;22;19927;-80
2022/12/01 10:41:04;;;;;;;;;;;;;;;6.69;100.00;100776.56;6301460;22;19919;-82
2022/12/01 10:44:04;;;;;;;;;;;;;;;6.68;100.00;100772.25;6271820;22;19927;-82
2022/12/01 10:49:54;;;;;;;;;;;;;;;6.87;100.00;100769.72;6265860;22;20037;-85
2022/12/01 10:52:40;;;;;;;;;;;;;;;6.70;100.00;100767.69;6250052;22;20333;-87
2022/12/01 10:55:25;;;;;;;;;;;;;;;6.99;100.00;100767.84;6276023;22;19911;-88
2022/12/01 10:57:53;;;;;;;;;;;;;;;6.86;100.00;100767.22;6277339;22;19911;-80
2022/12/01 11:00:23;;;;;;;;;;;;;;;6.81;100.00;100759.72;6277651;22;20222;-84
2022/12/01 11:02:48;;;;;;;;;;;;;;;6.91;100.00;100762.38;6252699;22;19915;-83
2022/12/01 11:05:20;;;;;;;;;;;;;;;7.07;100.00;100770.63;6279838;22;19986;-86
2022/12/01 11:07:46;;;;;;;;;;;;;;;7.12;100.00;100758.72;6279398;22;19994;-85
2022/12/01 11:10:19;;;;;;;;;;;;;;;7.37;100.00;100762.66;6279417;22;19964;-86
2022/12/01 11:12:52;;;;;;;;;;;;;;;7.52;100.00;100758.69;6279351;22;20349;-83
2022/12/01 11:15:20;;;;;;;;;;;;;;;7.62;100.00;100756.84;6279917;22;19918;-86
2022/12/01 11:17:46;;;;;;;;;;;;;;;7.50;100.00;100751.84;6280425;22;19914;-86
2022/12/01 11:20:30;;;;;;;;;;;;;;;7.55;100.00;100761.03;6252912;22;20304;-84
2022/12/01 11:23:14;;;;;;;;;;;;;;;7.56;100.00;100754.78;6279961;22;20406;-85
2022/12/01 11:25:40;;;;;;;;;;;;;;;7.53;100.00;100747.13;6290995;22;19942;-84
2022/12/01 11:28:05;;;;;;;;;;;;;;;7.35;100.00;100748.78;6267027;22;19911;-86
2022/12/01 11:30:31;;;;;;;;;;;;;;;7.31;100.00;100752.66;6290835;22;19911;-89
2022/12/01 11:32:58;;;;;;;;;;;;;;;7.32;100.00;100749.06;6254481;22;19915;-83
2022/12/01 11:35:25;;;;;;;;;;;;;;;7.55;100.00;100747.84;6280754;22;19911;-84
2022/12/01 11:37:52;;;;;;;;;;;;;;;7.32;100.00;100743.78;6254420;22;19911;-86
2022/12/01 11:40:22;;;;;;;;;;;;;;;7.37;100.00;100746.00;6252942;22;19911;-84
2022/12/01 11:42:49;;;;;;;;;;;;;;;7.56;100.00;100741.59;6280315;22;20301;-87
2022/12/01 11:45:21;;;;;;;;;;;;;;;7.43;100.00;100740.19;6279943;22;19907;-86
2022/12/01 11:47:57;;;;;;;;;;;;;;;7.53;100.00;100733.09;6279572;22;19918;-84
2022/12/01 11:50:24;;;;;;;;;;;;;;;7.45;100.00;100730.34;6278969;22;20335;-84
2022/12/01 11:52:49;;;;;;;;;;;;;;;7.32;100.00;100733.25;6279164;22;19918;-86
2022/12/01 11:55:15;;;;;;;;;;;;;;;7.20;100.00;100723.75;6279051;22;20272;-85
2022/12/01 11:57:45;;;;;;;;;;;;;;;7.06;100.00;100711.00;6226854;22;19965;-85
2022/12/01 12:00:14;;;;;;;;;;;;;;;7.11;100.00;100703.50;6279510;22;20354;-85
2022/12/01 12:02:44;;;;;;;;;;;;;;;7.22;100.00;100704.19;6252843;22;19911;-85
2022/12/01 12:05:25;;;;;;;;;;;;;;;7.31;100.00;100709.63;6280994;22;19981;-85
2022/12/01 12:07:53;;;;;;;;;;;;;;;7.29;100.00;100691.34;6280990;22;20234;-83
2022/12/01 12:10:28;;;;;;;;;;;;;;;7.21;100.00;100694.66;6291109;22;19911;-86
2022/12/01 12:12:57;;;;;;;;;;;;;;;7.24;100.00;100699.66;6263445;22;19950;-85
2022/12/01 12:15:40;;;;;;;;;;;;;;;7.32;100.00;100691.06;6291285;22;19967;-85
2022/12/01 12:18:08;;;;;;;;;;;;;;;7.16;100.00;100690.72;6284643;22;19912;-85
2022/12/01 12:20:52;;;;;;;;;;;;;;;7.13;100.00;100691.00;6279778;22;19915;-84
2022/12/01 12:23:44;;;;;;;;;;;;;;;7.06;100.00;100689.91;6255372;22;20216;-89
2022/12/01 12:26:18;;;;;;;;;;;;;;;7.31;100.00;100694.66;6208016;22;19915;-86
2022/12/01 12:29:02;;;;;;;;;;;;;;;7.44;100.00;100695.22;6281530;22;19911;-90
2022/12/01 12:31:36;;;;;;;;;;;;;;;7.28;100.00;100694.94;6281496;22;19922;-84
2022/12/01 12:34:22;;;;;;;;;;;;;;;7.12;100.00;100699.91;6281390;22;19937;-86
2022/12/01 12:37:08;;;;;;;;;;;;;;;7.04;100.00;100694.47;6250835;22;19911;-83
2022/12/01 12:39:39;;;;;;;;;;;;;;;7.18;100.00;100688.81;6250446;22;19937;-84
2022/12/01 12:42:10;;;;;;;;;;;;;;;7.31;100.00;100684.13;6278343;22;19911;-83
2022/12/01 12:44:42;;;;;;;;;;;;;;;7.37;100.00;100688.00;6277974;22;19988;-89
2022/12/01 12:47:20;;;;;;;;;;;;;;;7.34;100.00;100691.75;6278645;22;19937;-86
2022/12/01 12:49:45;;;;;;;;;;;;;;;7.46;100.00;100688.00;6278273;22;19915;-86
2022/12/01 12:52:39;;;;;;;;;;;;;;;7.67;100.00;100690.50;6278438;22;19957;-88
2022/12/01 12:55:19;;;;;;;;;;;;;;;7.58;100.00;100696.63;6273901;22;19911;-86
2022/12/01 12:57:54;;;;;;;;;;;;;;;7.71;100.00;100692.75;6277704;22;19918;-85
2022/12/01 13:00:23;;;;;;;;;;;;;;;7.52;100.00;100690.09;6277839;22;19911;-85
2022/12/01 13:02:51;;;;;;;;;;;;;;;7.45;100.00;100681.09;6277980;22;19915;-88
2022/12/01 13:05:37;;;;;;;;;;;;;;;7.64;100.00;100689.00;6278028;22;19972;-85
2022/12/01 13:08:15;;;;;;;;;;;;;;;7.62;100.00;100684.84;6277438;22;19911;-85
2022/12/01 13:10:47;;;;;;;;;;;;;;;7.55;100.00;100674.00;6275894;22;19911;-87